createdAt,value
2023-04-20T00:02:17.879Z,17.75
2023-04-20T00:04:50.401Z,18.53
2023-04-20T00:07:24.927Z,17.90
2023-04-20T00:09:57.053Z,19.85
2023-04-20T00:12:29.120Z,18.80
2023-04-20T00:15:01.384Z,18.63
2023-04-20T00:17:33.672Z,17.33
2023-04-20T00:20:10.172Z,19.70
2023-04-20T00:22:42.295Z,20.15
2023-04-20T00:25:14.381Z,18.20
2023-04-20T00:27:46.803Z,20.00
2023-04-20T00:30:19.033Z,17.83
2023-04-20T00:32:51.758Z,21.23
2023-04-20T00:35:24.110Z,19.92
2023-04-20T00:37:57.140Z,19.33
2023-04-20T00:40:31.093Z,18.67
2023-04-20T00:43:11.042Z,16.95
2023-04-20T00:45:43.132Z,16.65
2023-04-20T00:48:15.822Z,16.15
2023-04-20T00:50:49.033Z,15.65
2023-04-20T00:53:21.362Z,15.40
2023-04-20T00:55:54.772Z,14.18
2023-04-20T00:58:27.085Z,14.80
2023-04-20T01:00:59.510Z,15.35
2023-04-20T01:03:32.487Z,14.25
2023-04-20T01:06:07.953Z,15.10
2023-04-20T01:08:48.295Z,15.32
2023-04-20T01:11:20.370Z,15.25
2023-04-20T01:13:52.471Z,14.90
2023-04-20T01:16:24.661Z,13.57
2023-04-20T01:18:57.450Z,14.32
2023-04-20T01:21:29.735Z,12.17
2023-04-20T01:24:04.014Z,12.73
2023-04-20T01:26:37.923Z,12.57
2023-04-20T01:29:12.881Z,11.40
2023-04-20T01:31:45.083Z,12.38
2023-04-20T01:34:17.846Z,12.18
2023-04-20T01:36:50.789Z,11.57
2023-04-20T01:39:22.927Z,11.05
2023-04-20T01:41:55.049Z,9.38
2023-04-20T01:44:27.197Z,11.27
2023-04-20T01:46:59.582Z,10.88
2023-04-20T01:49:32.282Z,9.90
2023-04-20T01:52:04.474Z,9.43
2023-04-20T01:54:37.660Z,8.88
2023-04-20T01:59:42.126Z,9.52
2023-04-20T02:02:14.324Z,9.73
2023-04-20T02:04:46.575Z,9.93
2023-04-20T02:07:18.745Z,9.93
2023-04-20T02:09:50.826Z,10.52
2023-04-20T02:12:23.335Z,10.10
2023-04-20T02:14:55.521Z,9.63
2023-04-20T02:17:30.065Z,10.70
2023-04-20T02:20:02.205Z,10.13
2023-04-20T02:22:35.308Z,10.25
2023-04-20T02:25:09.326Z,10.95
2023-04-20T02:27:42.833Z,10.55
2023-04-20T02:30:17.146Z,11.18
2023-04-20T02:32:49.392Z,10.90
2023-04-20T02:35:22.164Z,10.63
2023-04-20T02:37:54.376Z,11.00
2023-04-20T02:40:26.515Z,12.27
2023-04-20T02:42:59.403Z,11.70
2023-04-20T02:45:33.410Z,12.65
2023-04-20T02:48:06.067Z,12.23
2023-04-20T02:50:38.624Z,13.70
2023-04-20T02:53:20.890Z,13.25
2023-04-20T02:56:00.360Z,14.18
2023-04-20T02:58:45.010Z,13.23
2023-04-20T03:01:40.018Z,13.63
2023-04-20T03:04:19.612Z,14.38
2023-04-20T03:07:05.962Z,13.02
2023-04-20T03:09:40.504Z,13.10
2023-04-20T03:12:29.184Z,12.60
2023-04-20T03:15:33.808Z,12.25
2023-04-20T03:18:21.113Z,12.10
2023-04-20T03:20:53.356Z,13.20
2023-04-20T03:23:25.692Z,12.82
2023-04-20T03:25:57.941Z,13.93
2023-04-20T03:28:51.244Z,14.65
2023-04-20T03:31:27.238Z,14.63
2023-04-20T03:34:02.156Z,13.98
2023-04-20T03:36:34.552Z,15.50
2023-04-20T03:39:07.220Z,15.25
2023-04-20T03:41:39.799Z,15.55
2023-04-20T03:44:12.437Z,16.77
2023-04-20T03:46:44.525Z,15.55
2023-04-20T03:49:16.939Z,17.02
2023-04-20T03:51:49.679Z,15.20
2023-04-20T03:54:21.755Z,17.38
2023-04-20T03:56:54.311Z,15.48
2023-04-20T03:59:27.018Z,14.73
2023-04-20T04:02:00.024Z,13.13
2023-04-20T04:04:32.834Z,13.55
2023-04-20T04:07:05.802Z,13.60
2023-04-20T04:09:37.969Z,13.23
2023-04-20T04:12:10.550Z,12.23
2023-04-20T04:14:43.410Z,13.20
2023-04-20T04:17:18.173Z,13.18
2023-04-20T04:19:51.142Z,12.93
2023-04-20T04:22:23.266Z,12.90
2023-04-20T04:25:15.509Z,11.95
2023-04-20T04:27:49.369Z,12.05
2023-04-20T04:30:21.484Z,11.32
2023-04-20T04:32:53.929Z,11.98
2023-04-20T04:35:27.120Z,11.65
2023-04-20T04:38:01.182Z,10.68
2023-04-20T04:40:34.198Z,11.18
2023-04-20T04:43:10.394Z,10.30
2023-04-20T04:45:45.680Z,10.90
2023-04-20T04:48:17.908Z,11.13
2023-04-20T04:53:23.682Z,10.25
2023-04-20T04:55:56.101Z,11.18
2023-04-20T04:58:28.287Z,11.00
2023-04-20T05:01:00.343Z,12.02
2023-04-20T05:03:32.636Z,12.85
2023-04-20T05:06:05.341Z,12.75
2023-04-20T05:08:37.493Z,12.60
2023-04-20T05:11:09.698Z,11.32
2023-04-20T05:13:41.991Z,11.18
2023-04-20T05:16:14.584Z,9.90
2023-04-20T05:18:46.897Z,10.25
2023-04-20T05:21:19.523Z,9.63
2023-04-20T05:23:51.946Z,10.25
2023-04-20T05:26:24.180Z,10.68
2023-04-20T05:28:56.246Z,10.77
2023-04-20T05:31:29.468Z,10.73
2023-04-20T05:34:02.979Z,10.55
2023-04-20T05:39:07.267Z,9.88
2023-04-20T05:41:39.988Z,10.90
2023-04-20T05:44:12.303Z,11.13
2023-04-20T05:46:44.561Z,10.43
2023-04-20T05:49:17.109Z,9.88
2023-04-20T05:51:49.569Z,8.88
2023-04-20T05:54:22.702Z,9.32
2023-04-20T05:56:55.766Z,7.25
2023-04-20T06:02:00.935Z,10.27
2023-04-20T06:04:33.469Z,9.37
2023-04-20T06:07:05.956Z,7.87
2023-04-20T06:09:38.436Z,9.23
2023-04-20T06:12:10.553Z,9.43
2023-04-20T06:14:42.951Z,10.13
2023-04-20T06:17:15.248Z,11.23
2023-04-20T06:19:47.679Z,10.40
2023-04-20T06:22:20.638Z,11.13
2023-04-20T06:24:53.090Z,9.73
2023-04-20T06:27:25.561Z,9.45
2023-04-20T06:29:57.795Z,10.50
2023-04-20T06:32:30.134Z,11.23
2023-04-20T06:35:02.797Z,10.27
2023-04-20T06:37:38.123Z,11.07
2023-04-20T06:40:10.465Z,11.48
2023-04-20T06:42:42.603Z,10.32
2023-04-20T06:45:14.715Z,8.98
2023-04-20T06:47:46.965Z,8.70
2023-04-20T06:50:19.975Z,8.10
2023-04-20T06:52:52.177Z,8.43
2023-04-20T06:55:24.421Z,9.07
2023-04-20T06:57:57.041Z,9.77
2023-04-20T07:00:29.158Z,10.82
2023-04-20T07:03:02.936Z,10.43
2023-04-20T07:05:36.816Z,11.82
2023-04-20T07:08:09.723Z,14.25
2023-04-20T07:10:41.862Z,12.73
2023-04-20T07:13:14.291Z,10.82
2023-04-20T07:15:46.608Z,10.20
2023-04-20T07:18:19.053Z,10.55
2023-04-20T07:20:52.227Z,10.70
2023-04-20T07:23:24.913Z,10.07
2023-04-20T07:25:57.033Z,10.52
2023-04-20T07:28:29.093Z,12.30
2023-04-20T07:31:01.712Z,12.98
2023-04-20T07:33:35.903Z,14.27
2023-04-20T07:36:08.612Z,12.90
2023-04-20T07:38:40.780Z,13.80
2023-04-20T07:41:13.017Z,13.57
2023-04-20T07:43:45.148Z,11.98
2023-04-20T07:46:21.856Z,12.68
2023-04-20T07:48:54.128Z,12.48
2023-04-20T07:51:26.900Z,12.55
2023-04-20T07:53:58.971Z,13.57
2023-04-20T07:56:32.271Z,13.73
2023-04-20T07:59:04.402Z,13.15
2023-04-20T08:01:37.170Z,13.50
2023-04-20T08:04:09.507Z,14.23
2023-04-20T08:06:41.830Z,13.52
2023-04-20T08:09:13.951Z,13.35
2023-04-20T08:11:46.522Z,13.20
2023-04-20T08:14:18.986Z,12.20
2023-04-20T08:16:51.743Z,12.38
2023-04-20T08:19:23.978Z,12.43
2023-04-20T08:21:56.740Z,14.43
2023-04-20T08:24:29.476Z,14.52
2023-04-20T08:27:01.896Z,13.90
2023-04-20T08:29:33.993Z,16.10
2023-04-20T08:32:09.372Z,16.52
2023-04-20T08:34:45.103Z,17.50
2023-04-20T08:37:17.239Z,16.98
2023-04-20T08:39:49.571Z,17.35
2023-04-20T08:42:21.800Z,17.10
2023-04-20T08:44:53.899Z,16.67
2023-04-20T08:47:28.210Z,16.83
2023-04-20T08:50:01.356Z,16.00
2023-04-20T08:52:36.088Z,16.77
2023-04-20T08:55:08.964Z,14.85
2023-04-20T08:57:42.590Z,15.75
2023-04-20T09:02:55.242Z,14.95
2023-04-20T09:05:32.362Z,16.20
2023-04-20T09:08:05.402Z,17.08
2023-04-20T09:10:45.125Z,17.02
2023-04-20T09:13:24.396Z,17.60
2023-04-20T09:15:56.633Z,18.00
2023-04-20T09:18:28.855Z,18.02
2023-04-20T09:21:09.184Z,18.87
2023-04-20T09:23:41.533Z,18.02
2023-04-20T09:26:19.211Z,16.52
2023-04-20T09:28:51.429Z,17.23
2023-04-20T09:31:24.115Z,16.55
2023-04-20T09:34:01.474Z,17.00
2023-04-20T09:36:42.197Z,17.10
2023-04-20T09:39:17.224Z,17.35
2023-04-20T09:41:53.266Z,18.33
2023-04-20T09:44:25.634Z,16.85
2023-04-20T09:46:59.667Z,17.15
2023-04-20T09:49:32.766Z,16.98
2023-04-20T09:52:05.336Z,16.63
2023-04-20T09:54:38.230Z,17.20
2023-04-20T09:57:10.579Z,17.40
2023-04-20T09:59:44.192Z,16.73
2023-04-20T10:04:56.674Z,16.55
2023-04-20T10:07:32.027Z,15.15
2023-04-20T10:10:12.837Z,15.82
2023-04-20T10:12:52.665Z,14.85
2023-04-20T10:15:37.318Z,14.02
2023-04-20T10:18:24.079Z,15.43
2023-04-20T10:21:11.284Z,16.08
2023-04-20T10:23:51.003Z,15.30
2023-04-20T10:26:23.704Z,15.60
2023-04-20T10:28:56.080Z,16.73
2023-04-20T10:31:41.946Z,17.40
2023-04-20T10:34:14.707Z,17.27
2023-04-20T10:36:46.960Z,17.30
2023-04-20T10:39:22.382Z,16.05
2023-04-20T10:42:02.335Z,16.25
2023-04-20T10:44:35.696Z,16.90
2023-04-20T10:47:07.887Z,17.85
2023-04-20T10:49:40.411Z,17.25
2023-04-20T10:52:12.595Z,17.25
2023-04-20T10:54:44.661Z,16.15
2023-04-20T10:57:17.223Z,17.45
2023-04-20T10:59:49.431Z,15.88
2023-04-20T11:02:22.072Z,16.75
2023-04-20T11:05:01.006Z,16.60
2023-04-20T11:07:33.575Z,16.48
2023-04-20T11:10:07.187Z,16.42
2023-04-20T11:12:40.150Z,16.38
2023-04-20T11:15:12.386Z,16.90
2023-04-20T11:17:45.264Z,16.73
2023-04-20T11:20:18.734Z,16.90
2023-04-20T11:25:30.107Z,18.35
2023-04-20T11:28:11.550Z,17.13
2023-04-20T11:30:44.157Z,14.75
2023-04-20T11:33:28.287Z,14.77
2023-04-20T11:36:02.074Z,13.10
2023-04-20T11:38:35.270Z,13.85
2023-04-20T11:41:08.051Z,11.93
2023-04-20T11:43:40.287Z,13.23
2023-04-20T11:46:21.689Z,12.40
2023-04-20T11:48:54.455Z,11.70
2023-04-20T11:51:27.793Z,12.47
2023-04-20T11:53:59.970Z,14.48
2023-04-20T11:56:32.306Z,14.07
2023-04-20T11:59:05.024Z,13.40
2023-04-20T12:01:38.598Z,13.77
2023-04-20T12:04:11.135Z,13.77
2023-04-20T12:06:43.643Z,12.27
2023-04-20T12:09:15.815Z,13.15
2023-04-20T12:11:47.972Z,12.52
2023-04-20T12:14:20.349Z,13.25
2023-04-20T12:16:52.855Z,12.65
2023-04-20T12:19:24.974Z,12.38
2023-04-20T12:21:57.148Z,13.43
2023-04-20T12:24:29.942Z,12.67
2023-04-20T12:27:03.965Z,12.30
2023-04-20T12:29:36.082Z,12.55
2023-04-20T12:32:08.512Z,12.13
2023-04-20T12:34:41.212Z,12.88
2023-04-20T12:37:14.866Z,12.53
2023-04-20T12:42:19.551Z,12.80
2023-04-20T12:44:54.904Z,13.93
2023-04-20T12:47:27.096Z,14.38
2023-04-20T12:49:59.440Z,13.60
2023-04-20T12:52:31.594Z,13.52
2023-04-20T12:55:04.323Z,14.30
2023-04-20T12:57:37.426Z,14.00
2023-04-20T13:00:11.620Z,13.50
2023-04-20T13:02:45.453Z,13.65
2023-04-20T13:05:17.944Z,13.90
2023-04-20T13:07:50.056Z,13.85
2023-04-20T13:10:22.347Z,13.20
2023-04-20T13:12:54.450Z,12.60
2023-04-20T13:15:38.000Z,13.65
2023-04-20T13:18:11.427Z,13.15
2023-04-20T13:20:43.516Z,13.20
2023-04-20T13:23:16.040Z,12.60
2023-04-20T13:25:48.606Z,13.48
2023-04-20T13:28:20.792Z,13.07
2023-04-20T13:30:55.600Z,14.77
2023-04-20T13:33:27.776Z,14.90
2023-04-20T13:36:00.139Z,15.38
2023-04-20T13:38:32.307Z,15.48
2023-04-20T13:41:04.720Z,14.20
2023-04-20T13:43:37.125Z,14.77
2023-04-20T13:46:09.432Z,15.35
2023-04-20T13:48:42.639Z,16.30
2023-04-20T13:51:14.978Z,15.55
2023-04-20T13:53:50.051Z,14.73
2023-04-20T13:56:22.297Z,16.50
2023-04-20T13:58:54.468Z,17.23
2023-04-20T14:01:26.879Z,17.13
2023-04-20T14:03:59.399Z,17.15
2023-04-20T14:06:32.178Z,19.52
2023-04-20T14:09:04.468Z,17.85
2023-04-20T14:11:36.739Z,18.08
2023-04-20T14:14:09.582Z,19.90
2023-04-20T14:16:46.207Z,17.80
2023-04-20T14:19:18.479Z,17.90
2023-04-20T14:21:51.323Z,18.67
2023-04-20T14:24:24.303Z,20.55
2023-04-20T14:26:57.295Z,19.90
2023-04-20T14:29:29.516Z,19.67
2023-04-20T14:32:01.685Z,22.17
2023-04-20T14:34:34.104Z,21.35
2023-04-20T14:37:06.231Z,21.85
2023-04-20T14:39:38.880Z,22.55
2023-04-20T14:42:12.155Z,22.27
2023-04-20T14:44:44.849Z,22.52
2023-04-20T14:47:17.078Z,22.55
2023-04-20T14:49:49.195Z,21.45
2023-04-20T14:52:21.653Z,21.42
2023-04-20T14:54:54.010Z,22.00
2023-04-20T14:57:26.257Z,21.85
2023-04-20T14:59:58.467Z,22.40
2023-04-20T15:02:31.313Z,21.42
2023-04-20T15:07:36.263Z,21.63
2023-04-20T15:10:09.450Z,21.80
2023-04-20T15:12:41.532Z,21.83
2023-04-20T15:15:14.296Z,23.73
2023-04-20T15:17:47.112Z,20.58
2023-04-20T15:20:19.797Z,21.13
2023-04-20T15:22:52.027Z,21.40
2023-04-20T15:25:24.891Z,20.13
2023-04-20T15:27:57.051Z,19.25
2023-04-20T15:30:30.643Z,21.85
2023-04-20T15:35:38.290Z,19.98
2023-04-20T15:38:10.543Z,19.98
2023-04-20T15:40:42.769Z,19.30
2023-04-20T15:43:15.130Z,20.02
2023-04-20T15:45:47.329Z,18.63
2023-04-20T15:48:19.688Z,20.98
2023-04-20T15:50:52.716Z,19.88
2023-04-20T15:53:25.425Z,19.80
2023-04-20T15:55:57.819Z,20.73
2023-04-20T15:58:30.056Z,20.08
2023-04-20T16:01:02.195Z,20.33
2023-04-20T16:03:34.666Z,19.30
2023-04-20T16:06:07.399Z,20.13
2023-04-20T16:08:39.790Z,19.17
2023-04-20T16:11:11.871Z,18.60
2023-04-20T16:13:44.694Z,18.98
2023-04-20T16:16:16.875Z,19.93
2023-04-20T16:18:49.163Z,20.13
2023-04-20T16:21:22.818Z,20.15
2023-04-20T16:23:56.806Z,21.75
2023-04-20T16:26:29.197Z,20.60
2023-04-20T16:29:01.505Z,20.75
2023-04-20T16:31:33.644Z,22.05
2023-04-20T16:34:05.859Z,20.83
2023-04-20T16:36:37.997Z,19.23
2023-04-20T16:39:10.515Z,18.55
2023-04-20T16:41:42.719Z,19.27
2023-04-20T16:44:16.656Z,21.83
2023-04-20T16:46:52.058Z,20.05
2023-04-20T16:49:24.272Z,21.00
2023-04-20T16:51:57.620Z,21.75
2023-04-20T16:54:29.799Z,23.20
2023-04-20T16:57:02.312Z,23.33
2023-04-20T16:59:34.514Z,22.92
2023-04-20T17:02:06.875Z,21.77
2023-04-20T17:04:40.338Z,23.77
2023-04-20T17:07:13.649Z,23.55
2023-04-20T17:09:46.048Z,22.92
2023-04-20T17:12:18.198Z,21.83
2023-04-20T17:14:50.596Z,22.33
2023-04-20T17:17:22.871Z,22.45
2023-04-20T17:19:55.206Z,22.48
2023-04-20T17:22:27.347Z,22.50
2023-04-20T17:25:00.907Z,22.92
2023-04-20T17:27:33.274Z,23.63
2023-04-20T17:30:06.356Z,22.70
2023-04-20T17:32:39.045Z,22.83
2023-04-20T17:35:11.349Z,22.50
2023-04-20T17:37:43.513Z,21.85
2023-04-20T17:40:15.821Z,24.80
2023-04-20T17:42:48.069Z,24.92
2023-04-20T17:45:20.288Z,22.63
2023-04-20T17:47:53.921Z,23.35
2023-04-20T17:52:58.238Z,24.83
2023-04-20T17:55:30.785Z,24.23
2023-04-20T17:58:02.960Z,23.98
2023-04-20T18:00:35.443Z,22.80
2023-04-20T18:03:07.754Z,23.88
2023-04-20T18:05:40.032Z,23.40
2023-04-20T18:08:13.565Z,21.92
2023-04-20T18:10:46.314Z,21.88
2023-04-20T18:13:18.413Z,22.63
2023-04-20T18:15:51.054Z,19.83
2023-04-20T18:18:23.219Z,20.55
2023-04-20T18:20:55.868Z,19.13
2023-04-20T18:23:30.374Z,21.27
2023-04-20T18:26:02.751Z,21.20
2023-04-20T18:28:35.572Z,21.08
2023-04-20T18:31:08.124Z,21.50
2023-04-20T18:33:40.584Z,22.10
2023-04-20T18:36:12.756Z,20.23
2023-04-20T18:38:45.430Z,20.65
2023-04-20T18:41:18.315Z,20.90
2023-04-20T18:43:53.891Z,20.05
2023-04-20T18:46:26.105Z,20.73
2023-04-20T18:48:58.521Z,21.55
2023-04-20T18:51:32.267Z,22.08
2023-04-20T18:54:05.244Z,24.25
2023-04-20T18:56:38.888Z,21.58
2023-04-20T18:59:12.437Z,23.73
2023-04-20T19:01:44.640Z,22.58
2023-04-20T19:04:18.049Z,21.95
2023-04-20T19:06:50.511Z,22.83
2023-04-20T19:09:23.527Z,20.35
2023-04-20T19:11:55.670Z,22.48
2023-04-20T19:14:27.894Z,22.17
2023-04-20T19:17:02.216Z,24.58
2023-04-20T19:19:37.620Z,24.63
2023-04-20T19:22:09.966Z,21.40
2023-04-20T19:24:42.432Z,21.50
2023-04-20T19:27:14.942Z,21.83
2023-04-20T19:29:47.425Z,21.33
2023-04-20T19:32:19.576Z,22.08
2023-04-20T19:34:56.644Z,23.92
2023-04-20T19:37:29.007Z,23.85
2023-04-20T19:40:01.400Z,23.80
2023-04-20T19:42:33.678Z,22.35
2023-04-20T19:45:06.872Z,22.83
2023-04-20T19:47:39.117Z,25.35
2023-04-20T19:50:11.591Z,23.30
2023-04-20T19:52:43.817Z,23.55
2023-04-20T19:55:15.984Z,22.17
2023-04-20T19:57:48.265Z,22.15
2023-04-20T20:00:20.947Z,23.27
2023-04-20T20:02:53.527Z,23.02
2023-04-20T20:05:25.898Z,22.17
2023-04-20T20:07:57.978Z,21.80
2023-04-20T20:10:30.422Z,23.13
2023-04-20T20:13:02.786Z,20.90
2023-04-20T20:15:37.515Z,19.50
2023-04-20T20:18:10.724Z,19.50
2023-04-20T20:20:43.486Z,18.60
2023-04-20T20:23:15.720Z,18.90
2023-04-20T20:25:48.233Z,17.98
2023-04-20T20:28:20.902Z,19.93
2023-04-20T20:30:53.161Z,19.27
2023-04-20T20:33:27.007Z,18.52
2023-04-20T20:36:01.730Z,18.42
2023-04-20T20:38:34.820Z,18.13
2023-04-20T20:41:07.086Z,17.95
2023-04-20T20:43:42.291Z,18.02
2023-04-20T20:46:14.691Z,17.88
2023-04-20T20:48:47.118Z,16.83
2023-04-20T20:51:19.834Z,19.53
2023-04-20T20:53:52.283Z,18.30
2023-04-20T20:56:24.910Z,21.55
2023-04-20T20:58:57.272Z,22.10
2023-04-20T21:01:29.460Z,21.65
2023-04-20T21:04:01.686Z,23.08
2023-04-20T21:06:34.145Z,22.48
2023-04-20T21:09:06.345Z,18.48
2023-04-20T21:11:38.467Z,19.13
2023-04-20T21:14:10.857Z,19.30
2023-04-20T21:16:43.028Z,24.23
2023-04-20T21:19:15.149Z,33.13
2023-04-20T21:21:47.193Z,25.55
2023-04-20T21:24:19.521Z,23.48
2023-04-20T21:26:52.689Z,22.20
2023-04-20T21:29:24.839Z,21.38
2023-04-20T21:31:57.205Z,31.90
2023-04-20T21:34:29.386Z,20.08
2023-04-20T21:37:05.373Z,21.13
2023-04-20T21:39:37.580Z,17.35
2023-04-20T21:42:10.120Z,17.60
2023-04-20T21:44:42.380Z,16.40
2023-04-20T21:47:14.469Z,18.38
2023-04-20T21:49:46.499Z,18.60
2023-04-20T21:52:18.682Z,17.80
2023-04-20T21:54:50.821Z,17.80
2023-04-20T21:57:23.354Z,17.67
2023-04-20T21:59:55.465Z,18.23
2023-04-20T22:02:27.667Z,17.77
2023-04-20T22:04:59.918Z,21.73
2023-04-20T22:07:32.894Z,18.27
2023-04-20T22:10:06.359Z,16.50
2023-04-20T22:12:40.670Z,17.35
2023-04-20T22:15:14.456Z,16.63
2023-04-20T22:17:46.772Z,16.70
2023-04-20T22:20:19.593Z,16.98
2023-04-20T22:22:51.653Z,16.90
2023-04-20T22:25:26.900Z,15.77
2023-04-20T22:27:58.979Z,16.15
2023-04-20T22:30:31.337Z,14.77
2023-04-20T22:33:04.223Z,15.88
2023-04-20T22:35:36.486Z,15.32
2023-04-20T22:38:08.796Z,16.25
2023-04-20T22:40:40.876Z,16.42
2023-04-20T22:43:13.067Z,15.38
2023-04-20T22:45:45.525Z,15.75
2023-04-20T22:48:17.788Z,15.45
2023-04-20T22:50:49.845Z,15.90
2023-04-20T22:53:21.918Z,16.20
2023-04-20T22:55:53.984Z,15.45
2023-04-20T22:58:26.125Z,15.73
2023-04-20T23:00:58.854Z,15.98
2023-04-20T23:03:31.597Z,15.30
2023-04-20T23:06:03.933Z,16.33
2023-04-20T23:08:35.980Z,17.40
2023-04-20T23:11:08.282Z,17.15
2023-04-20T23:13:41.475Z,17.88
2023-04-20T23:16:13.891Z,19.38
2023-04-20T23:18:46.004Z,19.15
2023-04-20T23:21:18.421Z,18.83
2023-04-20T23:23:50.879Z,19.45
2023-04-20T23:26:23.979Z,20.02
2023-04-20T23:28:56.144Z,19.65
2023-04-20T23:31:28.493Z,19.08
2023-04-20T23:34:00.794Z,20.65
2023-04-20T23:36:33.063Z,20.73
2023-04-20T23:39:05.950Z,21.27
2023-04-20T23:41:38.016Z,20.92
2023-04-20T23:44:10.197Z,21.13
2023-04-20T23:46:42.341Z,22.77
2023-04-20T23:49:14.430Z,22.83
2023-04-20T23:51:46.517Z,23.10
2023-04-20T23:54:18.646Z,23.27
2023-04-20T23:56:51.093Z,23.02
2023-04-20T23:59:23.474Z,23.85
